Time;durP1;ratioP1;P1;durP2;ratioP2;P2;SDS_P1;SDS_P2;PMS_P1;PMS_P2;Temp;Humidity;BMP_temperature;BMP_pressure;BME280_temperature;BME280_humidity;BME280_pressure;Samples;Min_cycle;Max_cycle;Signal;HPM_P1;HPM_P2
2023/01/26 00:01:32;;;;;;;;;;;;;;;16.03;71.54;102008.31;7405119;19;2148;-54
2023/01/26 00:04:00;;;;;;;;;;;;;;;16.04;71.38;102004.72;7404149;19;1732;-52
2023/01/26 00:06:28;;;;;;;;;;;;;;;16.00;71.32;102005.81;7405677;19;1726;-53
2023/01/26 00:08:57;;;;;;;;;;;;;;;16.00;70.97;101995.16;7404402;19;1935;-53
2023/01/26 00:11:28;;;;;;;;;;;;;;;15.97;71.03;102005.97;7405397;19;1765;-53
2023/01/26 00:13:57;;;;;;;;;;;;;;;16.00;71.45;101987.16;7403243;19;2082;-53
2023/01/26 00:16:28;;;;;;;;;;;;;;;15.96;70.92;101989.13;7404216;19;1929;-53
2023/01/26 00:18:57;;;;;;;;;;;;;;;15.96;71.08;101977.59;7403599;19;1867;-53
2023/01/26 00:21:25;;;;;;;;;;;;;;;15.95;71.13;101978.53;7401928;19;1735;-53
2023/01/26 00:23:54;;;;;;;;;;;;;;;15.97;70.88;101973.97;7403637;19;1622;-53
2023/01/26 00:26:23;;;;;;;;;;;;;;;15.98;70.71;101960.53;7404699;19;1641;-53
2023/01/26 00:28:51;;;;;;;;;;;;;;;16.00;70.77;101979.16;7403649;19;2049;-53
2023/01/26 00:31:21;;;;;;;;;;;;;;;16.00;70.91;101968.47;7404020;19;2105;-52
2023/01/26 00:33:52;;;;;;;;;;;;;;;16.00;70.38;101971.16;7403028;19;2027;-53
2023/01/26 00:36:20;;;;;;;;;;;;;;;15.94;71.03;101967.00;7404352;19;1753;-53
2023/01/26 00:38:49;;;;;;;;;;;;;;;15.93;70.80;101962.59;7402570;19;1851;-53
2023/01/26 00:43:58;;;;;;;;;;;;;;;15.87;70.59;101958.47;7399321;19;1703;-53
2023/01/26 00:46:26;;;;;;;;;;;;;;;15.87;70.82;101947.78;7404300;19;1739;-52
2023/01/26 00:48:59;;;;;;;;;;;;;;;15.86;70.92;101961.25;7402788;19;2093;-53
2023/01/26 00:51:28;;;;;;;;;;;;;;;15.83;71.09;101954.25;7403575;19;1875;-52
2023/01/26 00:53:56;;;;;;;;;;;;;;;15.83;70.56;101948.06;7401495;19;1864;-53
2023/01/26 00:56:26;;;;;;;;;;;;;;;15.83;71.07;101950.72;7400845;19;1642;-53
2023/01/26 00:58:55;;;;;;;;;;;;;;;15.82;71.04;101933.88;7403000;19;1851;-52
2023/01/26 01:01:23;;;;;;;;;;;;;;;15.85;70.99;101947.03;7402588;19;1676;-53
2023/01/26 01:03:51;;;;;;;;;;;;;;;15.81;71.04;101948.16;7402133;19;1894;-53
2023/01/26 01:06:23;;;;;;;;;;;;;;;15.77;70.86;101930.59;7403517;19;1933;-52
2023/01/26 01:08:51;;;;;;;;;;;;;;;15.80;70.88;101945.59;7401309;19;1884;-53
2023/01/26 01:11:19;;;;;;;;;;;;;;;15.78;70.83;101945.66;7403299;19;1853;-53
2023/01/26 01:13:48;;;;;;;;;;;;;;;15.77;70.55;101949.25;7401591;19;1782;-53
2023/01/26 01:16:17;;;;;;;;;;;;;;;15.88;70.50;101922.00;7401259;19;1940;-52
2023/01/26 01:18:46;;;;;;;;;;;;;;;16.64;68.08;101940.69;7401722;19;1896;-52
2023/01/26 01:21:15;;;;;;;;;;;;;;;17.22;66.31;101930.13;7401505;19;1849;-52
2023/01/26 01:23:46;;;;;;;;;;;;;;;18.27;63.30;101917.13;7401094;19;2029;-53
2023/01/26 01:26:15;;;;;;;;;;;;;;;18.53;62.65;101922.53;7403906;19;1013;-52
2023/01/26 01:28:44;;;;;;;;;;;;;;;18.87;61.46;101904.16;7401800;19;2015;-52
2023/01/26 01:31:14;;;;;;;;;;;;;;;19.01;61.12;101916.63;7400768;19;1762;-53
2023/01/26 01:33:42;;;;;;;;;;;;;;;19.05;61.18;101893.97;7402663;19;1648;-52
2023/01/26 01:36:12;;;;;;;;;;;;;;;18.94;61.55;101897.44;7402501;19;1884;-52
2023/01/26 01:38:40;;;;;;;;;;;;;;;18.74;62.21;101889.88;7400899;19;1893;-52
2023/01/26 01:41:11;;;;;;;;;;;;;;;18.49;62.81;101899.59;7400272;19;1853;-52
2023/01/26 01:43:40;;;;;;;;;;;;;;;18.11;63.87;101900.38;7401112;19;1590;-53
2023/01/26 01:46:09;;;;;;;;;;;;;;;17.53;65.21;101914.81;7402086;19;1918;-53
2023/01/26 01:48:40;;;;;;;;;;;;;;;17.13;66.57;101895.94;7401462;19;2360;-53
2023/01/26 01:51:10;;;;;;;;;;;;;;;16.85;67.51;101897.66;7401814;19;2132;-53
2023/01/26 01:53:39;;;;;;;;;;;;;;;16.70;68.05;101897.59;7397850;19;1922;-52
2023/01/26 01:56:11;;;;;;;;;;;;;;;16.58;68.09;101878.78;7399819;19;1799;-52
2023/01/26 01:58:43;;;;;;;;;;;;;;;16.52;68.08;101890.69;7400942;19;1885;-52
2023/01/26 02:01:12;;;;;;;;;;;;;;;16.46;68.65;101880.38;7398800;19;1864;-53
2023/01/26 02:03:41;;;;;;;;;;;;;;;16.41;68.67;101893.13;7400738;19;2139;-52
2023/01/26 02:06:13;;;;;;;;;;;;;;;16.32;68.83;101880.34;7401900;19;1889;-53
2023/01/26 02:08:44;;;;;;;;;;;;;;;16.34;68.97;101886.47;7399227;19;1623;-52
2023/01/26 02:11:15;;;;;;;;;;;;;;;16.25;69.02;101888.72;7399061;19;1683;-53
2023/01/26 02:13:47;;;;;;;;;;;;;;;16.22;68.67;101893.38;7400530;19;1676;-53
2023/01/26 02:16:16;;;;;;;;;;;;;;;16.19;69.16;101873.06;7401367;19;1876;-53
2023/01/26 02:18:45;;;;;;;;;;;;;;;16.13;69.31;101884.09;7401164;19;2006;-53
2023/01/26 02:21:15;;;;;;;;;;;;;;;16.12;69.34;101871.72;7399066;19;1857;-53
2023/01/26 02:23:51;;;;;;;;;;;;;;;16.08;69.19;101875.50;7398286;19;1770;-53
2023/01/26 02:26:24;;;;;;;;;;;;;;;16.08;69.11;101883.50;7401630;19;1041;-53
2023/01/26 02:28:52;;;;;;;;;;;;;;;16.07;69.33;101877.28;7401304;19;1691;-53
2023/01/26 02:31:21;;;;;;;;;;;;;;;16.06;69.02;101883.59;7398772;19;2073;-52
2023/01/26 02:33:49;;;;;;;;;;;;;;;16.07;69.21;101882.63;7398978;19;1733;-53
2023/01/26 02:36:19;;;;;;;;;;;;;;;16.06;68.79;101877.41;7400542;19;1685;-53
2023/01/26 02:38:53;;;;;;;;;;;;;;;16.07;68.92;101876.44;7399606;19;1839;-53
2023/01/26 02:44:06;;;;;;;;;;;;;;;15.98;69.38;101863.66;7403052;19;1702;-52
2023/01/26 02:46:34;;;;;;;;;;;;;;;15.97;69.19;101880.59;7407058;19;1771;-52
2023/01/26 02:51:43;;;;;;;;;;;;;;;16.79;66.68;101852.56;7408658;19;736;-53
2023/01/26 02:55:21;;;;;;;;;;;;;;;17.75;63.93;101861.66;7404605;19;2073;-52
2023/01/26 02:57:00;;;;;;;;;;;;;;;18.84;60.86;101830.22;7405525;19;1813;-52
2023/01/26 02:59:28;;;;;;;;;;;;;;;19.21;59.97;101832.91;7406067;19;1918;-52
2023/01/26 03:01:57;;;;;;;;;;;;;;;19.43;59.43;101842.94;7406209;19;2043;-52
2023/01/26 03:04:25;;;;;;;;;;;;;;;19.47;59.29;101831.03;7405828;19;1969;-53
2023/01/26 03:06:54;;;;;;;;;;;;;;;19.44;59.21;101825.91;7407726;19;1840;-52
2023/01/26 03:09:22;;;;;;;;;;;;;;;19.28;59.97;101819.94;7406107;19;1884;-52
2023/01/26 03:11:51;;;;;;;;;;;;;;;19.33;59.73;101830.34;7405146;19;1624;-52
2023/01/26 03:14:22;;;;;;;;;;;;;;;19.37;60.00;101808.53;7405886;19;1821;-52
2023/01/26 03:16:50;;;;;;;;;;;;;;;19.40;59.74;101805.63;7405501;19;1807;-51
2023/01/26 03:27:29;;;;;;;;;;;;;;;19.15;60.51;101806.56;7405940;19;1744;-52
2023/01/26 03:30:00;;;;;;;;;;;;;;;18.25;62.39;101811.94;7404654;19;1720;-51
2023/01/26 03:32:28;;;;;;;;;;;;;;;17.73;64.43;101795.84;7405791;19;1562;-52
2023/01/26 03:34:57;;;;;;;;;;;;;;;17.96;63.75;101775.59;7405514;19;1927;-51
2023/01/26 03:37:25;;;;;;;;;;;;;;;18.74;61.74;101772.84;7406919;19;981;-52
2023/01/26 03:56:20;;;;;;;;;;;;;;;19.73;59.13;101747.75;7403710;19;1794;-52
2023/01/26 03:58:50;;;;;;;;;;;;;;;19.71;59.17;101740.78;7404310;19;1947;-52
2023/01/26 04:01:25;;;;;;;;;;;;;;;19.08;60.76;101749.84;7403445;19;1849;-52
2023/01/26 04:09:16;;;;;;;;;;;;;;;18.62;61.95;101739.75;7404307;19;1740;-52
2023/01/26 04:11:44;;;;;;;;;;;;;;;18.86;61.29;101736.28;7402943;19;1939;-51
2023/01/26 04:22:17;;;;;;;;;;;;;;;18.92;60.84;101746.59;7405800;19;787;-50
2023/01/26 04:24:45;;;;;;;;;;;;;;;18.88;61.01;101742.41;7402532;19;2235;-51
2023/01/26 04:27:14;;;;;;;;;;;;;;;18.84;61.27;101748.94;7404009;19;2195;-52
2023/01/26 04:29:42;;;;;;;;;;;;;;;18.87;60.91;101746.91;7403115;19;1942;-51
2023/01/26 04:32:13;;;;;;;;;;;;;;;18.91;60.99;101723.41;7403339;19;2172;-52
2023/01/26 04:34:41;;;;;;;;;;;;;;;18.90;60.95;101728.88;7403870;19;2061;-52
2023/01/26 04:37:10;;;;;;;;;;;;;;;18.92;60.52;101729.63;7404301;19;1671;-52
2023/01/26 04:39:38;;;;;;;;;;;;;;;18.84;60.56;101728.38;7403382;19;2052;-52
2023/01/26 04:42:07;;;;;;;;;;;;;;;18.89;60.42;101730.72;7401125;19;1905;-51
2023/01/26 04:44:35;;;;;;;;;;;;;;;18.96;60.52;101723.94;7403183;19;1870;-50
2023/01/26 04:47:03;;;;;;;;;;;;;;;18.94;60.82;101733.03;7403371;19;2031;-52
2023/01/26 04:49:34;;;;;;;;;;;;;;;18.91;60.65;101712.69;7402205;19;2067;-52
2023/01/26 04:52:03;;;;;;;;;;;;;;;18.92;60.67;101735.00;7404077;19;1942;-52
2023/01/26 04:54:31;;;;;;;;;;;;;;;18.95;60.95;101729.41;7399357;19;1659;-52
2023/01/26 04:56:59;;;;;;;;;;;;;;;18.95;60.64;101734.78;7402408;19;1763;-52
2023/01/26 04:59:27;;;;;;;;;;;;;;;18.93;60.60;101737.56;7402378;19;1848;-52
2023/01/26 05:01:56;;;;;;;;;;;;;;;18.90;60.70;101727.09;7402203;19;1898;-52
2023/01/26 05:04:24;;;;;;;;;;;;;;;18.91;60.56;101728.78;7400349;19;1727;-52
2023/01/26 05:06:55;;;;;;;;;;;;;;;18.88;60.71;101723.66;7401729;19;1916;-52
2023/01/26 05:09:23;;;;;;;;;;;;;;;18.91;60.41;101719.88;7399433;19;1795;-52
2023/01/26 05:11:51;;;;;;;;;;;;;;;18.94;60.56;101723.22;7399311;19;1748;-52
2023/01/26 05:14:20;;;;;;;;;;;;;;;18.88;60.46;101696.84;7397389;19;1558;-51
2023/01/26 05:16:48;;;;;;;;;;;;;;;18.89;60.35;101703.91;7401845;19;1696;-51
2023/01/26 05:19:16;;;;;;;;;;;;;;;18.87;60.73;101711.22;7402354;19;1762;-52
2023/01/26 05:21:45;;;;;;;;;;;;;;;18.96;60.81;101715.91;7399347;19;1920;-53
2023/01/26 05:24:16;;;;;;;;;;;;;;;18.95;60.62;101714.19;7401394;19;2026;-53
2023/01/26 05:26:44;;;;;;;;;;;;;;;18.89;61.30;101698.56;7400331;19;1943;-50
2023/01/26 05:29:12;;;;;;;;;;;;;;;18.87;61.09;101700.50;7402019;19;3474;-53
2023/01/26 05:31:40;;;;;;;;;;;;;;;19.00;60.37;101704.00;7400430;19;1756;-51
2023/01/26 05:34:09;;;;;;;;;;;;;;;19.03;60.41;101702.91;7400725;19;2081;-51
2023/01/26 05:36:37;;;;;;;;;;;;;;;19.03;60.05;101706.44;7401100;19;1874;-52
2023/01/26 05:39:05;;;;;;;;;;;;;;;19.02;60.31;101703.84;7398857;19;1929;-50
2023/01/26 05:41:36;;;;;;;;;;;;;;;19.02;60.79;101694.00;7397619;19;2143;-51
2023/01/26 05:44:04;;;;;;;;;;;;;;;19.08;60.94;101706.97;7400533;19;1764;-52
2023/01/26 05:46:33;;;;;;;;;;;;;;;19.17;60.76;101712.59;7401297;19;1778;-51
2023/01/26 05:49:01;;;;;;;;;;;;;;;19.21;61.30;101722.97;7400626;19;1922;-54
2023/01/26 05:51:30;;;;;;;;;;;;;;;19.22;60.80;101711.31;7398826;19;1647;-53
2023/01/26 05:53:59;;;;;;;;;;;;;;;19.14;60.74;101707.47;7394484;19;1893;-53
2023/01/26 05:56:28;;;;;;;;;;;;;;;19.07;60.42;101707.91;7398410;19;1626;-52
2023/01/26 05:58:59;;;;;;;;;;;;;;;19.02;60.06;101709.22;7399030;19;1881;-53
2023/01/26 06:01:27;;;;;;;;;;;;;;;19.02;60.15;101704.72;7399399;19;1821;-54
2023/01/26 06:03:56;;;;;;;;;;;;;;;18.99;59.80;101698.75;7400381;19;2028;-54
2023/01/26 06:06:24;;;;;;;;;;;;;;;18.97;59.75;101714.06;7401259;19;1732;-53
2023/01/26 06:08:52;;;;;;;;;;;;;;;18.95;59.53;101707.97;7400439;19;1760;-52
2023/01/26 06:11:21;;;;;;;;;;;;;;;18.87;59.68;101685.25;7400366;19;1766;-54
2023/01/26 06:13:49;;;;;;;;;;;;;;;18.92;59.61;101698.34;7400365;19;1657;-52
2023/01/26 06:16:20;;;;;;;;;;;;;;;18.93;59.65;101704.56;7390188;19;1793;-53
2023/01/26 06:18:49;;;;;;;;;;;;;;;18.93;59.34;101700.03;7400662;19;2066;-53
2023/01/26 06:21:18;;;;;;;;;;;;;;;18.95;59.26;101698.09;7406056;19;2037;-53
2023/01/26 06:23:46;;;;;;;;;;;;;;;18.88;59.52;101696.84;7406352;19;1745;-53
2023/01/26 06:26:15;;;;;;;;;;;;;;;18.90;59.79;101689.56;7406295;19;1465;-53
2023/01/26 06:28:43;;;;;;;;;;;;;;;18.88;59.65;101680.78;7404817;19;2054;-53
2023/01/26 06:31:12;;;;;;;;;;;;;;;18.90;59.36;101684.19;7405763;19;2002;-53
2023/01/26 06:33:43;;;;;;;;;;;;;;;18.91;59.55;101701.97;7403759;19;1641;-53
2023/01/26 06:36:13;;;;;;;;;;;;;;;18.92;59.94;101686.75;7405508;19;1989;-53
2023/01/26 06:38:46;;;;;;;;;;;;;;;18.37;60.77;101702.28;7403847;19;1869;-53
2023/01/26 06:41:14;;;;;;;;;;;;;;;17.84;62.65;101694.34;7403698;19;1874;-52
2023/01/26 06:43:45;;;;;;;;;;;;;;;17.50;63.29;101704.59;7403670;19;1856;-53
2023/01/26 06:46:14;;;;;;;;;;;;;;;17.30;64.04;101689.91;7404515;19;1834;-52
2023/01/26 06:48:45;;;;;;;;;;;;;;;17.77;63.19;101680.50;7404413;19;1652;-53
2023/01/26 06:51:34;;;;;;;;;;;;;;;18.68;60.64;101653.56;7405021;19;1918;-52
2023/01/26 06:54:02;;;;;;;;;;;;;;;19.26;59.08;101655.63;7400352;19;1667;-53
2023/01/26 06:56:30;;;;;;;;;;;;;;;19.31;58.57;101653.44;7402273;19;1714;-53
2023/01/26 06:58:59;;;;;;;;;;;;;;;19.37;58.92;101647.59;7405122;19;1577;-52
2023/01/26 07:01:28;;;;;;;;;;;;;;;19.19;58.83;101651.69;7396313;19;1862;-53
2023/01/26 07:03:59;;;;;;;;;;;;;;;19.04;59.37;101632.25;7404551;19;1769;-53
2023/01/26 07:06:27;;;;;;;;;;;;;;;19.05;59.73;101626.75;7404499;19;1741;-53
2023/01/26 07:08:55;;;;;;;;;;;;;;;18.99;59.88;101627.22;7403448;19;1629;-53
2023/01/26 07:11:24;;;;;;;;;;;;;;;18.92;60.00;101627.78;7403552;19;1559;-53
2023/01/26 07:13:53;;;;;;;;;;;;;;;18.88;59.75;101619.13;7404625;19;2008;-53
2023/01/26 07:16:21;;;;;;;;;;;;;;;18.95;59.68;101628.41;7403706;19;1655;-53
2023/01/26 07:18:49;;;;;;;;;;;;;;;18.94;59.97;101641.91;7401786;19;1713;-52
2023/01/26 07:21:21;;;;;;;;;;;;;;;18.91;59.93;101626.94;7399802;19;1872;-52
2023/01/26 07:23:50;;;;;;;;;;;;;;;18.93;60.03;101637.53;7400198;19;1774;-53
2023/01/26 07:26:18;;;;;;;;;;;;;;;18.79;59.81;101627.81;7400920;19;1388;-53
2023/01/26 07:28:47;;;;;;;;;;;;;;;18.86;59.60;101621.03;7401145;19;1977;-52
2023/01/26 07:31:15;;;;;;;;;;;;;;;18.87;59.50;101604.84;7399701;19;1852;-52
2023/01/26 07:33:44;;;;;;;;;;;;;;;18.85;59.43;101611.31;7400863;19;1531;-52
2023/01/26 07:36:12;;;;;;;;;;;;;;;18.85;59.50;101616.66;7402413;19;1900;-53
2023/01/26 07:38:43;;;;;;;;;;;;;;;18.94;59.00;101610.63;7402272;19;1891;-54
2023/01/26 07:41:13;;;;;;;;;;;;;;;18.88;59.64;101595.88;7402201;19;1839;-53
2023/01/26 07:43:41;;;;;;;;;;;;;;;18.89;59.54;101607.44;7402313;19;2189;-53
2023/01/26 07:46:11;;;;;;;;;;;;;;;18.83;59.58;101602.53;7403235;19;1908;-53
2023/01/26 07:48:39;;;;;;;;;;;;;;;18.85;59.42;101612.16;7403276;19;1730;-53
2023/01/26 07:51:09;;;;;;;;;;;;;;;18.91;59.43;101610.84;7405737;19;1121;-53
2023/01/26 07:53:41;;;;;;;;;;;;;;;18.84;59.24;101597.06;7402105;19;1795;-53
2023/01/26 07:56:13;;;;;;;;;;;;;;;18.85;59.38;101600.59;7401998;19;1621;-53
2023/01/26 07:58:41;;;;;;;;;;;;;;;18.89;59.09;101580.63;7401868;19;1784;-53
2023/01/26 08:01:11;;;;;;;;;;;;;;;18.71;58.72;101581.97;7402616;19;2135;-52
2023/01/26 08:03:40;;;;;;;;;;;;;;;18.69;58.43;101577.56;7404187;19;1867;-53
2023/01/26 08:06:09;;;;;;;;;;;;;;;18.90;57.94;101603.78;7404711;19;1950;-53
2023/01/26 08:08:37;;;;;;;;;;;;;;;18.86;58.59;101591.56;7403627;19;2159;-53
2023/01/26 08:11:07;;;;;;;;;;;;;;;18.85;58.38;101592.56;7403102;19;2062;-54
2023/01/26 08:13:38;;;;;;;;;;;;;;;18.79;58.22;101587.63;7402624;19;2029;-54
2023/01/26 08:16:09;;;;;;;;;;;;;;;18.76;58.66;101586.03;7402329;19;1741;-53
2023/01/26 08:18:37;;;;;;;;;;;;;;;18.81;58.45;101585.72;7403234;19;1867;-53
2023/01/26 08:21:06;;;;;;;;;;;;;;;18.84;58.41;101580.97;7403392;19;1845;-54
2023/01/26 08:23:34;;;;;;;;;;;;;;;18.82;58.37;101574.00;7400591;19;1755;-53
2023/01/26 08:26:03;;;;;;;;;;;;;;;18.86;58.92;101576.38;7402393;19;1890;-53
2023/01/26 08:28:31;;;;;;;;;;;;;;;18.86;58.31;101586.19;7400681;19;2042;-53
2023/01/26 08:31:07;;;;;;;;;;;;;;;18.85;58.69;101579.16;7400142;19;1754;-54
2023/01/26 08:33:36;;;;;;;;;;;;;;;18.88;58.79;101585.16;7402341;19;1852;-53
2023/01/26 08:36:05;;;;;;;;;;;;;;;18.86;58.49;101562.09;7402264;19;1624;-53
2023/01/26 08:38:34;;;;;;;;;;;;;;;18.84;58.74;101562.22;7401575;19;1802;-53
2023/01/26 08:41:03;;;;;;;;;;;;;;;18.88;58.69;101565.53;7399864;19;1779;-54
2023/01/26 08:43:31;;;;;;;;;;;;;;;18.81;58.55;101572.31;7399079;19;1838;-54
2023/01/26 08:46:00;;;;;;;;;;;;;;;18.88;58.61;101563.69;7402123;19;1984;-54
2023/01/26 08:48:31;;;;;;;;;;;;;;;18.82;58.79;101563.28;7399960;19;1814;-54
2023/01/26 08:51:00;;;;;;;;;;;;;;;18.99;58.50;101554.00;7400739;19;1887;-52
2023/01/26 08:53:29;;;;;;;;;;;;;;;18.98;59.06;101541.53;7401080;19;1519;-50
2023/01/26 08:55:57;;;;;;;;;;;;;;;18.99;59.40;101538.75;7399771;19;1730;-53
2023/01/26 08:58:25;;;;;;;;;;;;;;;19.07;59.39;101559.63;7401654;19;1776;-53
2023/01/26 09:00:54;;;;;;;;;;;;;;;19.02;59.45;101543.03;7402179;19;1917;-53
2023/01/26 09:03:23;;;;;;;;;;;;;;;19.11;59.68;101530.75;7400773;19;1882;-51
2023/01/26 09:05:54;;;;;;;;;;;;;;;19.20;59.51;101552.34;7401886;19;1914;-50
2023/01/26 09:08:22;;;;;;;;;;;;;;;19.19;59.57;101544.44;7401129;19;1882;-53
2023/01/26 09:10:50;;;;;;;;;;;;;;;19.21;60.16;101554.06;7401573;19;1893;-54
2023/01/26 09:13:19;;;;;;;;;;;;;;;19.18;60.03;101538.22;7400742;19;1472;-56
2023/01/26 09:15:47;;;;;;;;;;;;;;;19.22;60.23;101533.47;7399557;19;1912;-52
2023/01/26 09:18:16;;;;;;;;;;;;;;;19.26;60.57;101527.75;7395402;19;1984;-53
2023/01/26 09:20:45;;;;;;;;;;;;;;;19.20;60.57;101527.34;7401030;19;1699;-53
2023/01/26 09:23:17;;;;;;;;;;;;;;;19.17;60.63;101520.41;7399927;19;1862;-51
2023/01/26 09:25:45;;;;;;;;;;;;;;;19.14;60.19;101525.16;7400836;19;2043;-54
2023/01/26 09:28:13;;;;;;;;;;;;;;;19.24;60.46;101518.13;7399724;19;1659;-53
2023/01/26 09:30:42;;;;;;;;;;;;;;;19.23;60.49;101519.94;7400176;19;1640;-53
2023/01/26 09:33:10;;;;;;;;;;;;;;;19.31;60.38;101521.19;7399678;19;1608;-51
2023/01/26 09:35:39;;;;;;;;;;;;;;;19.27;60.18;101504.47;7400254;19;1955;-54
2023/01/26 09:38:07;;;;;;;;;;;;;;;19.31;60.62;101521.19;7396426;19;2702;-52
2023/01/26 09:40:48;;;;;;;;;;;;;;;19.29;60.39;101499.84;7397213;19;1711;-53
2023/01/26 09:43:23;;;;;;;;;;;;;;;19.30;60.52;101482.78;7396413;19;1857;-52
2023/01/26 09:45:56;;;;;;;;;;;;;;;19.32;60.85;101485.31;7395173;19;2275;-52
2023/01/26 09:48:30;;;;;;;;;;;;;;;19.38;60.40;101474.16;7401524;19;1824;-53
2023/01/26 09:51:01;;;;;;;;;;;;;;;19.31;60.57;101483.63;7397503;19;3126;-53
2023/01/26 09:53:42;;;;;;;;;;;;;;;19.31;61.12;101456.81;7399824;19;1928;-53
2023/01/26 09:56:17;;;;;;;;;;;;;;;19.19;60.84;101446.06;7398798;19;2138;-53
2023/01/26 09:58:47;;;;;;;;;;;;;;;19.12;59.95;101450.22;7398138;19;1821;-53
2023/01/26 10:01:18;;;;;;;;;;;;;;;18.98;59.59;101440.56;7399171;19;1498;-53
2023/01/26 10:03:49;;;;;;;;;;;;;;;18.96;59.23;101438.97;7398878;19;1875;-52
2023/01/26 10:06:25;;;;;;;;;;;;;;;19.03;58.86;101454.44;7399477;19;1526;-53
2023/01/26 10:08:54;;;;;;;;;;;;;;;18.91;58.11;101458.09;7398771;19;1532;-53
2023/01/26 10:11:28;;;;;;;;;;;;;;;19.08;58.00;101448.75;7399229;19;1819;-53
2023/01/26 10:13:59;;;;;;;;;;;;;;;19.20;58.03;101454.97;7399019;19;1878;-53
2023/01/26 10:16:27;;;;;;;;;;;;;;;19.18;58.07;101440.81;7397290;19;1920;-53
2023/01/26 10:18:58;;;;;;;;;;;;;;;19.17;58.84;101434.63;7399821;19;1989;-53
2023/01/26 10:21:30;;;;;;;;;;;;;;;19.28;59.04;101444.50;7399987;19;1682;-51
2023/01/26 10:24:00;;;;;;;;;;;;;;;19.24;59.93;101437.69;7396811;19;1988;-54
2023/01/26 10:26:32;;;;;;;;;;;;;;;19.26;59.48;101441.09;7399363;19;1947;-51
2023/01/26 10:29:00;;;;;;;;;;;;;;;19.23;59.83;101417.19;7397653;19;2049;-52
2023/01/26 10:31:30;;;;;;;;;;;;;;;18.86;61.03;101425.41;7397184;19;1834;-51
2023/01/26 10:33:59;;;;;;;;;;;;;;;18.45;62.03;101416.88;7397863;19;1823;-53
2023/01/26 10:36:30;;;;;;;;;;;;;;;18.06;62.33;101404.66;7397763;19;1880;-53
2023/01/26 10:39:05;;;;;;;;;;;;;;;17.85;62.64;101409.78;7396723;19;1638;-54
2023/01/26 10:41:37;;;;;;;;;;;;;;;17.57;63.04;101393.03;7398685;19;1547;-53
2023/01/26 10:44:22;;;;;;;;;;;;;;;17.93;63.63;101414.56;7396231;19;1838;-52
2023/01/26 10:47:03;;;;;;;;;;;;;;;18.77;61.56;101394.81;7397842;19;1569;-53
2023/01/26 10:49:31;;;;;;;;;;;;;;;19.14;60.67;101399.13;7397763;19;1697;-53
2023/01/26 10:52:10;;;;;;;;;;;;;;;18.68;62.58;101393.69;7398166;19;1480;-53
2023/01/26 10:54:42;;;;;;;;;;;;;;;18.36;62.87;101384.56;7396238;19;1721;-52
2023/01/26 10:57:17;;;;;;;;;;;;;;;18.72;61.92;101391.66;7397716;19;1642;-53
2023/01/26 10:59:50;;;;;;;;;;;;;;;19.16;61.15;101373.06;7396977;19;1891;-53
2023/01/26 11:02:23;;;;;;;;;;;;;;;19.39;60.67;101372.09;7398564;19;1838;-53
2023/01/26 11:05:09;;;;;;;;;;;;;;;18.89;62.59;101376.94;7400105;19;1735;-53
2023/01/26 11:07:38;;;;;;;;;;;;;;;18.33;64.73;101358.06;7404464;19;1432;-52
2023/01/26 11:10:21;;;;;;;;;;;;;;;18.64;63.96;101356.53;7404340;19;1629;-53
2023/01/26 11:12:52;;;;;;;;;;;;;;;19.13;62.70;101336.63;7404948;19;1648;-52
2023/01/26 11:15:22;;;;;;;;;;;;;;;19.39;61.72;101314.91;7403536;19;1653;-52
2023/01/26 11:17:54;;;;;;;;;;;;;;;19.42;61.91;101304.78;7403946;19;1754;-53
2023/01/26 11:20:36;;;;;;;;;;;;;;;19.34;62.22;101301.88;7405385;19;1706;-53
2023/01/26 11:23:08;;;;;;;;;;;;;;;19.33;62.15;101302.84;7403966;19;1853;-52
2023/01/26 11:25:37;;;;;;;;;;;;;;;19.39;61.80;101294.31;7405945;19;2180;-52
2023/01/26 11:28:20;;;;;;;;;;;;;;;19.39;62.02;101304.19;7403528;19;1732;-52
2023/01/26 11:30:56;;;;;;;;;;;;;;;19.47;61.82;101312.47;7403935;19;1634;-53
2023/01/26 11:33:30;;;;;;;;;;;;;;;19.52;61.55;101304.91;7404413;19;1692;-53
2023/01/26 11:36:04;;;;;;;;;;;;;;;19.32;63.07;101301.16;7403735;19;1780;-53
2023/01/26 11:38:40;;;;;;;;;;;;;;;18.73;64.50;101298.72;7403585;19;1373;-53
2023/01/26 11:41:17;;;;;;;;;;;;;;;18.33;66.76;101304.50;7404016;19;1820;-53
2023/01/26 11:44:09;;;;;;;;;;;;;;;18.20;67.11;101305.41;6875188;19;10000203;-53
2023/01/26 11:46:50;;;;;;;;;;;;;;;18.14;67.33;101295.19;7395397;19;1899;-52
2023/01/26 11:49:27;;;;;;;;;;;;;;;18.83;64.68;101292.53;7395820;19;1547;-52
2023/01/26 11:52:02;;;;;;;;;;;;;;;19.54;62.57;101269.91;7397262;19;1639;-53
2023/01/26 11:54:37;;;;;;;;;;;;;;;19.56;63.19;101273.31;7396738;19;2914;-52
2023/01/26 11:57:10;;;;;;;;;;;;;;;18.94;64.88;101275.63;7394961;19;1906;-53
2023/01/26 11:59:41;;;;;;;;;;;;;;;18.46;66.90;101289.19;7397531;19;1777;-52
2023/01/26 12:02:23;;;;;;;;;;;;;;;18.80;66.38;101283.88;7398422;19;1640;-53
2023/01/26 12:04:54;;;;;;;;;;;;;;;19.37;64.27;101239.94;7398564;19;1722;-52
2023/01/26 12:07:25;;;;;;;;;;;;;;;19.57;64.47;101249.00;7394698;19;1713;-52
2023/01/26 12:09:53;;;;;;;;;;;;;;;19.06;67.30;101250.50;7395002;19;1798;-52
2023/01/26 12:12:26;;;;;;;;;;;;;;;18.53;70.28;101242.19;7395009;19;2188;-54
2023/01/26 12:14:57;;;;;;;;;;;;;;;18.19;71.56;101239.47;7395959;19;1664;-53
2023/01/26 12:17:46;;;;;;;;;;;;;;;18.52;69.82;101229.78;7394138;19;1996;-52
2023/01/26 12:20:22;;;;;;;;;;;;;;;19.26;67.81;101218.53;7397096;19;1626;-52
2023/01/26 12:22:54;;;;;;;;;;;;;;;19.64;66.69;101222.56;7395981;19;1857;-53
2023/01/26 12:25:28;;;;;;;;;;;;;;;19.29;70.26;101234.34;7396859;19;1436;-52
2023/01/26 12:28:00;;;;;;;;;;;;;;;18.60;71.38;101216.66;7395031;19;1750;-53
2023/01/26 12:30:32;;;;;;;;;;;;;;;18.28;73.30;101195.94;7395371;19;1794;-52
2023/01/26 12:33:03;;;;;;;;;;;;;;;18.92;71.03;101218.59;7395530;19;1929;-52
2023/01/26 12:35:50;;;;;;;;;;;;;;;19.53;68.58;101211.84;7396766;19;1849;-53
2023/01/26 12:38:21;;;;;;;;;;;;;;;19.27;70.12;101209.50;7400501;19;1780;-51
2023/01/26 12:40:55;;;;;;;;;;;;;;;18.08;69.50;101197.50;7400552;19;1866;-51
2023/01/26 12:43:34;;;;;;;;;;;;;;;17.40;69.21;101199.06;7399815;19;1854;-51
2023/01/26 12:46:04;;;;;;;;;;;;;;;17.08;67.25;101188.94;7401998;19;2163;-52
2023/01/26 12:48:40;;;;;;;;;;;;;;;17.32;70.43;101185.41;7402358;19;1918;-53
2023/01/26 12:51:12;;;;;;;;;;;;;;;17.53;69.70;101179.41;7403134;19;1783;-53
2023/01/26 12:53:46;;;;;;;;;;;;;;;17.98;68.76;101176.91;7400918;19;1726;-51
2023/01/26 12:56:18;;;;;;;;;;;;;;;18.71;65.32;101164.88;7400481;19;1916;-51
2023/01/26 12:58:48;;;;;;;;;;;;;;;18.65;63.99;101168.06;7399972;19;1810;-51
2023/01/26 13:01:18;;;;;;;;;;;;;;;18.62;61.73;101171.84;7401661;19;1683;-53
2023/01/26 13:03:58;;;;;;;;;;;;;;;18.54;60.26;101165.38;7400707;19;1836;-51
2023/01/26 13:06:27;;;;;;;;;;;;;;;18.51;58.74;101166.50;7403444;19;1004;-53
2023/01/26 13:09:03;;;;;;;;;;;;;;;19.01;57.82;101160.72;7401013;19;1930;-53
2023/01/26 13:11:44;;;;;;;;;;;;;;;18.65;59.50;101154.66;7402037;19;1907;-53
2023/01/26 13:14:28;;;;;;;;;;;;;;;18.17;63.12;101150.41;7400979;19;1888;-53
2023/01/26 13:16:56;;;;;;;;;;;;;;;18.26;61.91;101160.41;7400144;19;1745;-52
2023/01/26 13:19:53;;;;;;;;;;;;;;;18.76;61.25;101157.34;7399940;19;1846;-53
2023/01/26 13:22:42;;;;;;;;;;;;;;;18.92;61.04;101156.09;7401188;19;1973;-52
2023/01/26 13:25:19;;;;;;;;;;;;;;;18.23;63.43;101166.00;7399692;19;2066;-52
2023/01/26 13:27:48;;;;;;;;;;;;;;;17.76;64.64;101167.81;7397913;19;2042;-52
2023/01/26 13:30:44;;;;;;;;;;;;;;;17.49;65.67;101166.28;7399841;19;1933;-52
2023/01/26 13:33:15;;;;;;;;;;;;;;;17.29;66.29;101142.88;7398501;19;1856;-53
2023/01/26 13:35:47;;;;;;;;;;;;;;;17.19;66.41;101152.53;7400430;19;2071;-52
2023/01/26 13:38:20;;;;;;;;;;;;;;;17.13;66.42;101142.31;7331393;19;1885;-52
2023/01/26 13:40:50;;;;;;;;;;;;;;;17.17;66.46;101155.34;7400383;19;1938;-53
2023/01/26 13:43:24;;;;;;;;;;;;;;;17.86;64.35;101147.44;7397413;19;2021;-54
2023/01/26 13:45:58;;;;;;;;;;;;;;;18.68;61.64;101128.50;7398135;19;1909;-54
2023/01/26 13:48:34;;;;;;;;;;;;;;;19.26;60.52;101149.66;7398108;19;1933;-54
2023/01/26 13:51:05;;;;;;;;;;;;;;;19.15;60.89;101127.41;7397810;19;1883;-54
2023/01/26 13:53:40;;;;;;;;;;;;;;;18.50;62.89;101129.94;7396975;19;2100;-53